Time;durP1;ratioP1;P1;durP2;ratioP2;P2;SDS_P1;SDS_P2;PMS_P1;PMS_P2;Temp;Humidity;BMP_temperature;BMP_pressure;BME280_temperature;BME280_humidity;BME280_pressure;Samples;Min_cycle;Max_cycle;Signal;HPM_P1;HPM_P2
2022/04/13 00:02:03;;;;;;;4.20;2.33;;;16.70;94.00;;;;;;5067423;28;20206;-37
2022/04/13 00:04:29;;;;;;;4.87;2.57;;;16.50;94.60;;;;;;5050865;28;20182;-37
2022/04/13 00:06:54;;;;;;;4.63;3.10;;;16.50;95.10;;;;;;5059523;28;20523;-39
2022/04/13 00:09:20;;;;;;;4.03;2.80;;;16.40;95.70;;;;;;5051573;28;20189;-38
2022/04/13 00:11:46;;;;;;;3.23;2.93;;;16.30;95.20;;;;;;5051368;28;20202;-40
2022/04/13 00:14:12;;;;;;;2.47;2.27;;;16.30;96.40;;;;;;5072567;28;20625;-39
2022/04/13 00:16:38;;;;;;;2.87;2.63;;;16.20;96.10;;;;;;5073366;28;20645;-37
2022/04/13 00:19:03;;;;;;;2.70;2.50;;;16.20;95.60;;;;;;5055250;28;20648;-37
2022/04/13 00:21:29;;;;;;;5.67;2.50;;;16.20;95.80;;;;;;5053939;28;20823;-40
2022/04/13 00:23:56;;;;;;;2.87;2.60;;;16.10;96.70;;;;;;5054899;28;20177;-38
2022/04/13 00:26:23;;;;;;;3.50;3.20;;;15.90;98.30;;;;;;5051169;28;20213;-41
2022/04/13 00:28:49;;;;;;;2.67;2.47;;;15.70;98.90;;;;;;5069098;28;20517;-39
2022/04/13 00:31:14;;;;;;;2.90;2.70;;;15.70;99.40;;;;;;5062703;28;20515;-39
2022/04/13 00:33:40;;;;;;;2.77;2.57;;;15.60;99.50;;;;;;5055008;28;20193;-39
2022/04/13 00:36:06;;;;;;;2.37;2.20;;;15.60;99.80;;;;;;5059964;28;20280;-40
2022/04/13 00:38:32;;;;;;;4.13;2.87;;;15.60;99.80;;;;;;5053487;28;20239;-37
2022/04/13 00:40:58;;;;;;;2.57;2.37;;;15.60;99.90;;;;;;5050281;28;20474;-40
2022/04/13 00:43:24;;;;;;;2.73;2.53;;;15.60;99.30;;;;;;5050718;28;20294;-35
2022/04/13 00:45:51;;;;;;;2.77;2.47;;;15.60;99.20;;;;;;5055234;28;20428;-40
2022/04/13 00:48:36;;;;;;;2.60;2.20;;;15.60;99.20;;;;;;5050820;28;20420;-40
2022/04/13 00:51:03;;;;;;;3.50;2.87;;;15.60;99.40;;;;;;5057889;28;20465;-35
2022/04/13 00:53:30;;;;;;;3.27;2.80;;;15.50;99.90;;;;;;5051586;28;21000;-38
2022/04/13 00:55:58;;;;;;;4.77;2.60;;;15.40;99.90;;;;;;5050603;28;20486;-39
2022/04/13 00:58:29;;;;;;;4.03;2.47;;;15.30;99.90;;;;;;5056310;28;20823;-35
2022/04/13 01:00:56;;;;;;;3.10;2.70;;;15.30;99.90;;;;;;5072858;28;20489;-37
2022/04/13 01:03:24;;;;;;;3.03;2.40;;;15.30;99.90;;;;;;5050241;28;20511;-41
2022/04/13 01:05:51;;;;;;;3.00;2.67;;;15.30;99.90;;;;;;5054832;28;20415;-40
2022/04/13 01:08:18;;;;;;;3.67;2.47;;;15.30;99.90;;;;;;5050256;28;20412;-38
2022/04/13 01:10:46;;;;;;;2.87;2.67;;;15.20;99.90;;;;;;5049256;28;20446;-39
2022/04/13 01:13:13;;;;;;;3.43;2.67;;;15.20;99.90;;;;;;5052737;28;20428;-39
2022/04/13 01:15:39;;;;;;;2.87;2.60;;;15.20;99.90;;;;;;5075453;28;20414;-37
2022/04/13 01:18:05;;;;;;;4.23;3.00;;;15.20;99.90;;;;;;5056118;28;20451;-39
2022/04/13 01:20:31;;;;;;;5.03;2.60;;;15.10;99.90;;;;;;5050010;28;20452;-38
2022/04/13 01:22:57;;;;;;;4.03;2.63;;;15.10;99.90;;;;;;5050262;28;20937;-35
2022/04/13 01:25:23;;;;;;;3.43;2.57;;;15.00;99.90;;;;;;5052284;28;20428;-38
2022/04/13 01:27:49;;;;;;;3.87;2.33;;;15.10;99.90;;;;;;5058350;28;20868;-34
2022/04/13 01:30:15;;;;;;;2.40;2.20;;;15.00;99.90;;;;;;5066150;28;20191;-41
2022/04/13 01:32:40;;;;;;;3.27;2.57;;;14.90;99.90;;;;;;5058586;28;20316;-38
2022/04/13 01:35:07;;;;;;;4.37;3.20;;;14.90;99.90;;;;;;5049756;28;20504;-37
2022/04/13 01:37:34;;;;;;;7.93;3.00;;;14.80;99.90;;;;;;5059518;28;20447;-38
2022/04/13 01:40:00;;;;;;;3.13;2.63;;;14.70;99.90;;;;;;5048831;28;20463;-39
2022/04/13 01:42:25;;;;;;;3.13;2.87;;;14.70;99.90;;;;;;5047737;28;20511;-39
2022/04/13 01:44:51;;;;;;;3.70;2.80;;;14.60;99.90;;;;;;5065888;28;20924;-40
2022/04/13 01:47:17;;;;;;;2.97;2.60;;;14.60;99.90;;;;;;5059856;28;20277;-40
2022/04/13 01:49:43;;;;;;;2.67;2.47;;;14.60;99.90;;;;;;5049116;28;20551;-40
2022/04/13 01:52:10;;;;;;;3.30;2.70;;;14.60;99.90;;;;;;5055014;28;20987;-36
2022/04/13 01:54:36;;;;;;;2.60;2.27;;;14.60;99.90;;;;;;5049387;28;20450;-38
2022/04/13 01:57:03;;;;;;;5.00;3.03;;;14.60;99.90;;;;;;5049207;28;20436;-40
2022/04/13 01:59:28;;;;;;;4.17;2.67;;;14.80;99.90;;;;;;5063154;28;20430;-36
2022/04/13 02:01:54;;;;;;;2.93;2.33;;;15.00;99.90;;;;;;5067711;28;20940;-39
2022/04/13 02:04:22;;;;;;;3.80;2.83;;;15.10;99.90;;;;;;5048495;28;20227;-40
2022/04/13 02:06:49;;;;;;;3.23;2.93;;;15.30;99.90;;;;;;5050461;28;20537;-39
2022/04/13 02:09:16;;;;;;;4.20;2.87;;;15.40;99.90;;;;;;5049041;28;20412;-39
2022/04/13 02:11:41;;;;;;;3.20;2.90;;;15.40;99.90;;;;;;5048437;28;20922;-40
2022/04/13 02:14:07;;;;;;;3.80;2.80;;;15.30;99.90;;;;;;5057072;28;20442;-39
2022/04/13 02:16:34;;;;;;;4.20;2.50;;;15.20;99.90;;;;;;5079491;28;20427;-41
2022/04/13 02:19:00;;;;;;;3.50;2.70;;;15.10;99.90;;;;;;5049033;28;20428;-36
2022/04/13 02:21:26;;;;;;;3.13;2.73;;;15.00;99.90;;;;;;5054351;28;20474;-41
2022/04/13 02:23:52;;;;;;;2.80;2.60;;;15.00;99.90;;;;;;5057073;28;20181;-39
2022/04/13 02:26:19;;;;;;;2.70;2.50;;;14.90;99.90;;;;;;5049088;28;20419;-39
2022/04/13 02:28:48;;;;;;;2.40;2.17;;;14.90;99.90;;;;;;5054041;28;20203;-37
2022/04/13 02:31:14;;;;;;;3.70;2.87;;;14.90;99.90;;;;;;5076348;28;20494;-38
2022/04/13 02:33:40;;;;;;;2.80;2.60;;;14.90;99.90;;;;;;5053292;28;20515;-38
2022/04/13 02:36:06;;;;;;;3.63;3.10;;;14.80;99.90;;;;;;5051553;28;20190;-38
2022/04/13 02:38:32;;;;;;;4.30;3.20;;;14.60;99.90;;;;;;5052656;28;20578;-37
2022/04/13 02:40:58;;;;;;;2.80;2.60;;;14.60;99.90;;;;;;5048270;28;20472;-38
2022/04/13 02:43:28;;;;;;;2.60;2.40;;;14.60;99.90;;;;;;5048354;28;20477;-40
2022/04/13 02:45:54;;;;;;;3.57;2.77;;;14.60;99.90;;;;;;5069306;28;20247;-37
2022/04/13 02:48:20;;;;;;;3.20;2.83;;;14.60;99.90;;;;;;5065910;28;20420;-38
2022/04/13 02:50:48;;;;;;;5.30;3.10;;;14.40;99.90;;;;;;5047899;28;20420;-35
2022/04/13 02:53:17;;;;;;;3.80;2.67;;;14.20;99.90;;;;;;5051232;28;20421;-36
2022/04/13 02:55:43;;;;;;;5.40;3.00;;;14.10;99.90;;;;;;5048781;28;20454;-41
2022/04/13 02:58:09;;;;;;;4.63;3.27;;;14.10;99.90;;;;;;5051604;28;20494;-39
2022/04/13 03:00:35;;;;;;;4.20;3.30;;;14.10;99.90;;;;;;5063122;28;20217;-35
2022/04/13 03:03:02;;;;;;;4.17;2.53;;;14.30;99.90;;;;;;5059851;28;20177;-38
2022/04/13 03:05:29;;;;;;;4.53;3.23;;;14.30;99.90;;;;;;5047365;28;20507;-40
2022/04/13 03:07:55;;;;;;;3.07;2.33;;;14.30;99.90;;;;;;5059862;28;20515;-39
2022/04/13 03:10:20;;;;;;;2.97;2.67;;;14.10;99.90;;;;;;5050718;28;20499;-38
2022/04/13 03:12:46;;;;;;;4.03;2.60;;;14.00;99.90;;;;;;5052501;28;20224;-40
2022/04/13 03:15:12;;;;;;;5.83;2.57;;;13.90;99.90;;;;;;5054154;28;20196;-40
2022/04/13 03:17:38;;;;;;;3.40;2.23;;;13.90;99.90;;;;;;5070807;28;20243;-38
2022/04/13 03:20:05;;;;;;;3.50;2.63;;;13.90;99.90;;;;;;5051374;28;20212;-41
2022/04/13 03:22:31;;;;;;;3.00;2.53;;;13.90;99.90;;;;;;5059311;28;20448;-41
2022/04/13 03:25:00;;;;;;;4.43;2.60;;;13.90;99.90;;;;;;5055813;28;20451;-37
2022/04/13 03:27:26;;;;;;;3.70;2.90;;;14.00;99.90;;;;;;5052148;28;20181;-37
2022/04/13 03:29:51;;;;;;;3.23;2.93;;;14.00;99.90;;;;;;5057929;28;20861;-39
2022/04/13 03:32:17;;;;;;;6.20;3.50;;;14.00;99.90;;;;;;5069817;28;20431;-35
2022/04/13 03:34:43;;;;;;;4.00;2.90;;;14.10;99.90;;;;;;5051974;28;20186;-39
2022/04/13 03:37:08;;;;;;;4.80;2.53;;;14.10;99.90;;;;;;5055129;28;20227;-38
2022/04/13 03:39:34;;;;;;;2.73;2.53;;;14.10;99.90;;;;;;5051833;28;20691;-38
2022/04/13 03:42:00;;;;;;;6.20;2.70;;;14.00;99.90;;;;;;5051468;28;20244;-40
2022/04/13 03:44:25;;;;;;;3.07;2.40;;;13.90;99.90;;;;;;5056760;28;20197;-37
2022/04/13 03:46:51;;;;;;;4.10;2.60;;;13.90;99.90;;;;;;5076156;28;20181;-39
2022/04/13 03:49:17;;;;;;;4.77;3.07;;;13.90;99.90;;;;;;5055125;28;20204;-39
2022/04/13 03:51:43;;;;;;;4.60;3.23;;;13.90;99.90;;;;;;5054028;28;20196;-39
2022/04/13 03:54:09;;;;;;;2.87;2.60;;;13.90;99.90;;;;;;5061449;28;20625;-41
2022/04/13 03:56:36;;;;;;;3.90;3.20;;;13.90;99.90;;;;;;5051395;28;21125;-34
2022/04/13 03:59:02;;;;;;;3.50;2.90;;;13.90;99.90;;;;;;5056412;28;20596;-37
2022/04/13 04:01:28;;;;;;;4.43;3.00;;;13.90;99.90;;;;;;5062902;28;20713;-39
2022/04/13 04:03:54;;;;;;;3.43;2.80;;;14.00;99.90;;;;;;5059230;28;20420;-37
2022/04/13 04:06:20;;;;;;;2.90;2.70;;;14.10;99.90;;;;;;5051337;28;20672;-35
2022/04/13 04:08:46;;;;;;;2.60;2.40;;;14.00;99.90;;;;;;5060683;28;20412;-38
2022/04/13 04:11:13;;;;;;;6.17;2.73;;;14.00;99.90;;;;;;5050814;28;20474;-39
2022/04/13 04:13:38;;;;;;;5.00;2.90;;;14.00;99.90;;;;;;5050812;28;20675;-39
2022/04/13 04:16:04;;;;;;;5.00;2.93;;;14.10;99.90;;;;;;5075615;28;20423;-39
2022/04/13 04:18:30;;;;;;;5.40;2.80;;;14.00;99.90;;;;;;5064185;28;20205;-40
2022/04/13 04:20:56;;;;;;;3.83;2.80;;;14.00;99.90;;;;;;5049345;28;20456;-41
2022/04/13 04:23:22;;;;;;;3.80;3.00;;;13.90;99.90;;;;;;5056974;28;20978;-37
2022/04/13 04:25:48;;;;;;;2.77;2.57;;;13.90;99.90;;;;;;5053471;28;20182;-40
2022/04/13 04:28:14;;;;;;;3.17;2.57;;;13.90;99.90;;;;;;5050625;28;20196;-37
2022/04/13 04:30:41;;;;;;;3.97;2.97;;;13.90;99.90;;;;;;5059935;28;20424;-37
2022/04/13 04:33:08;;;;;;;5.23;2.97;;;13.90;99.90;;;;;;5067279;28;20791;-37
2022/04/13 04:35:34;;;;;;;7.40;3.10;;;13.90;99.90;;;;;;5050937;28;20428;-39
2022/04/13 04:38:00;;;;;;;3.03;2.50;;;14.00;99.90;;;;;;5050888;28;20498;-40
2022/04/13 04:40:26;;;;;;;4.13;2.80;;;14.00;99.90;;;;;;5050206;28;20948;-40
2022/04/13 04:42:52;;;;;;;7.70;3.20;;;13.90;99.90;;;;;;5050806;28;20416;-40
2022/04/13 04:45:22;;;;;;;3.17;2.87;;;13.90;99.90;;;;;;5052170;28;20420;-38
2022/04/13 04:47:49;;;;;;;3.00;2.73;;;13.90;99.90;;;;;;5055696;28;20460;-40
2022/04/13 04:50:16;;;;;;;5.70;3.27;;;13.90;99.90;;;;;;5074485;28;20434;-39
2022/04/13 04:52:46;;;;;;;5.60;2.30;;;13.90;99.90;;;;;;5063684;28;20412;-39
2022/04/13 04:55:14;;;;;;;6.27;3.17;;;13.90;99.90;;;;;;5065075;28;20433;-39
2022/04/13 04:57:40;;;;;;;4.90;3.73;;;13.90;99.90;;;;;;5078175;28;20421;-41
2022/04/13 05:00:09;;;;;;;5.97;3.20;;;13.90;99.90;;;;;;5063479;28;20469;-39
2022/04/13 05:02:37;;;;;;;5.07;3.27;;;13.90;99.90;;;;;;5063209;28;20947;-41
2022/04/13 05:05:06;;;;;;;3.90;2.80;;;13.80;99.90;;;;;;5066616;28;20442;-40
2022/04/13 05:07:33;;;;;;;3.43;3.10;;;13.80;99.90;;;;;;5067427;28;20461;-41
2022/04/13 05:09:59;;;;;;;3.23;2.97;;;13.80;99.90;;;;;;5049632;28;20416;-36
2022/04/13 05:12:25;;;;;;;5.90;3.30;;;13.80;99.90;;;;;;5053320;28;20956;-38
2022/04/13 05:14:54;;;;;;;3.33;3.00;;;13.70;99.90;;;;;;5059848;28;20192;-38
2022/04/13 05:17:20;;;;;;;6.17;3.03;;;13.70;99.90;;;;;;5076935;28;20415;-41
2022/04/13 05:19:46;;;;;;;4.97;3.43;;;13.70;99.90;;;;;;5049523;28;20552;-38
2022/04/13 05:22:11;;;;;;;5.27;3.47;;;13.70;99.90;;;;;;5050603;28;20528;-40
2022/04/13 05:24:37;;;;;;;4.47;3.20;;;13.70;99.90;;;;;;5053721;28;20276;-37
2022/04/13 05:27:03;;;;;;;4.20;3.17;;;13.70;99.90;;;;;;5049620;28;20552;-38
2022/04/13 05:29:29;;;;;;;4.30;3.37;;;13.70;99.90;;;;;;5049663;28;20212;-38
2022/04/13 05:31:54;;;;;;;6.37;3.93;;;13.80;99.90;;;;;;5058437;28;20825;-39
2022/04/13 05:34:20;;;;;;;5.90;4.33;;;13.80;99.90;;;;;;5054660;28;20268;-36
2022/04/13 05:36:45;;;;;;;5.33;3.30;;;13.80;99.90;;;;;;5049567;28;20214;-39
2022/04/13 05:39:11;;;;;;;6.17;3.60;;;13.90;99.90;;;;;;5059581;28;20236;-34
2022/04/13 05:41:37;;;;;;;6.23;3.40;;;13.90;99.90;;;;;;5048540;28;20209;-40
2022/04/13 05:44:03;;;;;;;6.93;3.63;;;14.00;99.90;;;;;;5048903;28;20194;-37
2022/04/13 05:46:28;;;;;;;5.23;3.47;;;14.10;99.90;;;;;;5051630;28;20194;-40
2022/04/13 05:48:54;;;;;;;9.87;3.60;;;14.20;99.90;;;;;;5068292;28;20486;-39
2022/04/13 05:51:20;;;;;;;6.27;3.97;;;14.30;99.90;;;;;;5055816;28;20224;-38
2022/04/13 05:53:45;;;;;;;6.50;3.10;;;14.40;99.90;;;;;;5062530;28;20200;-38
2022/04/13 05:56:11;;;;;;;5.90;3.67;;;14.50;99.90;;;;;;5084189;28;20279;-39
2022/04/13 05:58:36;;;;;;;10.13;4.70;;;14.60;99.90;;;;;;5049527;28;20197;-39
2022/04/13 06:01:02;;;;;;;3.87;3.43;;;14.80;99.90;;;;;;5057149;28;20220;-37
2022/04/13 06:03:28;;;;;;;6.47;4.80;;;14.90;99.90;;;;;;5067955;28;20196;-40
2022/04/13 06:05:53;;;;;;;6.40;4.10;;;15.10;99.90;;;;;;5077266;28;20189;-37
2022/04/13 06:08:19;;;;;;;7.70;4.63;;;15.20;99.90;;;;;;5070068;28;20287;-39
2022/04/13 06:10:45;;;;;;;8.23;4.13;;;15.30;99.90;;;;;;5073930;28;20188;-38
2022/04/13 06:13:11;;;;;;;9.83;4.90;;;15.50;99.90;;;;;;5048495;28;20432;-38
2022/04/13 06:15:36;;;;;;;6.93;4.37;;;15.60;99.90;;;;;;5058578;28;20198;-40
2022/04/13 06:18:03;;;;;;;7.30;4.77;;;15.70;99.90;;;;;;5070244;28;20271;-34
2022/04/13 06:20:28;;;;;;;7.60;4.40;;;15.80;99.90;;;;;;5048585;28;20216;-38
2022/04/13 06:22:54;;;;;;;7.70;4.60;;;16.00;99.90;;;;;;5053890;28;20794;-40
2022/04/13 06:25:20;;;;;;;7.57;4.97;;;16.00;99.90;;;;;;5057231;28;20264;-39
2022/04/13 06:27:46;;;;;;;9.23;4.60;;;16.20;99.90;;;;;;5059665;28;20190;-41
2022/04/13 06:30:13;;;;;;;12.13;5.10;;;16.40;99.90;;;;;;5059604;28;20449;-39
2022/04/13 06:32:41;;;;;;;6.30;4.87;;;16.50;99.90;;;;;;5064508;28;20416;-37
2022/04/13 06:35:09;;;;;;;9.97;5.10;;;16.60;99.90;;;;;;5086350;28;20398;-40
2022/04/13 06:37:38;;;;;;;7.00;4.53;;;16.70;99.90;;;;;;5055707;28;20423;-40
2022/04/13 06:40:05;;;;;;;7.80;6.33;;;16.80;99.90;;;;;;5056389;28;20419;-39
2022/04/13 06:42:34;;;;;;;10.67;6.57;;;16.80;99.90;;;;;;5065744;28;20778;-37
2022/04/13 06:45:00;;;;;;;9.10;5.53;;;16.80;99.90;;;;;;5060070;28;20492;-41
2022/04/13 06:47:29;;;;;;;8.27;5.73;;;16.80;99.90;;;;;;5076145;28;20848;-35
2022/04/13 06:49:55;;;;;;;7.60;5.17;;;16.80;99.90;;;;;;5067256;28;20552;-38
2022/04/13 06:52:21;;;;;;;8.63;5.30;;;16.90;99.90;;;;;;5058534;28;20424;-38
2022/04/13 06:54:47;;;;;;;8.77;7.00;;;17.00;99.90;;;;;;5051775;28;20565;-39
2022/04/13 06:57:13;;;;;;;9.27;6.37;;;17.10;99.90;;;;;;5057372;28;20221;-37
2022/04/13 06:59:38;;;;;;;9.80;5.80;;;17.10;99.90;;;;;;5057939;28;20951;-35
2022/04/13 07:02:06;;;;;;;8.40;5.83;;;17.30;99.90;;;;;;5078914;28;20216;-38
2022/04/13 07:04:33;;;;;;;9.43;6.47;;;17.20;99.90;;;;;;5064357;28;20193;-40
2022/04/13 07:07:00;;;;;;;10.60;6.50;;;17.30;99.90;;;;;;5051903;28;20768;-40
2022/04/13 07:09:26;;;;;;;9.30;6.67;;;17.30;99.90;;;;;;5063500;28;20811;-37
2022/04/13 07:11:51;;;;;;;12.70;6.20;;;17.30;99.90;;;;;;5051110;28;20436;-39
2022/04/13 07:14:17;;;;;;;8.87;6.30;;;17.40;99.90;;;;;;5051592;28;20193;-39
2022/04/13 07:16:43;;;;;;;15.23;7.20;;;17.30;99.90;;;;;;5066452;28;20665;-40
2022/04/13 07:19:09;;;;;;;11.87;6.30;;;17.40;99.90;;;;;;5071985;28;20284;-40
2022/04/13 07:21:34;;;;;;;11.83;6.23;;;17.40;99.90;;;;;;5050919;28;20669;-36
2022/04/13 07:24:00;;;;;;;14.60;6.60;;;17.40;99.90;;;;;;5058762;28;20205;-38
2022/04/13 07:26:26;;;;;;;9.83;7.00;;;17.50;99.90;;;;;;5054432;28;20625;-39
2022/04/13 07:28:53;;;;;;;9.40;6.23;;;17.50;99.90;;;;;;5066884;28;20189;-37
2022/04/13 07:31:19;;;;;;;13.50;6.93;;;17.60;99.90;;;;;;5066376;28;20212;-40
2022/04/13 07:33:44;;;;;;;10.10;6.70;;;17.60;99.90;;;;;;5078453;28;20482;-36
2022/04/13 07:36:12;;;;;;;12.73;7.43;;;17.70;99.90;;;;;;5061158;28;20201;-34
2022/04/13 07:38:37;;;;;;;10.27;6.93;;;17.60;99.90;;;;;;5054781;28;20189;-39
2022/04/13 07:41:04;;;;;;;9.40;6.17;;;17.70;99.90;;;;;;5050947;28;21000;-40
2022/04/13 07:43:30;;;;;;;14.00;7.20;;;17.60;99.90;;;;;;5055123;28;20236;-40
2022/04/13 07:45:55;;;;;;;12.93;6.63;;;17.70;99.90;;;;;;5060317;28;20463;-37
2022/04/13 07:48:22;;;;;;;11.33;6.77;;;17.70;99.90;;;;;;5080319;28;20907;-40
2022/04/13 07:50:47;;;;;;;9.53;7.13;;;17.80;99.90;;;;;;5057243;28;20591;-39
2022/04/13 07:53:13;;;;;;;10.93;6.47;;;17.90;99.90;;;;;;5053673;28;20436;-38
2022/04/13 07:55:39;;;;;;;9.83;7.33;;;17.90;99.90;;;;;;5060435;28;20312;-39
2022/04/13 07:58:06;;;;;;;12.10;8.67;;;18.00;99.90;;;;;;5050581;28;21022;-40
2022/04/13 08:00:32;;;;;;;12.03;7.70;;;18.00;99.90;;;;;;5050418;28;20245;-38
2022/04/13 08:02:58;;;;;;;13.67;8.30;;;17.90;99.90;;;;;;5076999;28;20473;-40
2022/04/13 08:05:24;;;;;;;9.67;7.60;;;17.90;99.90;;;;;;5061106;28;20989;-40
2022/04/13 08:07:50;;;;;;;15.00;8.43;;;17.80;99.90;;;;;;5051524;28;20209;-39
2022/04/13 08:10:15;;;;;;;13.80;9.23;;;17.80;99.90;;;;;;5059784;28;20284;-37
2022/04/13 08:12:42;;;;;;;14.93;9.67;;;17.80;99.90;;;;;;5051544;28;20655;-35
2022/04/13 08:15:09;;;;;;;14.40;10.00;;;17.80;99.90;;;;;;5052809;28;20276;-37
2022/04/13 08:17:35;;;;;;;16.00;11.30;;;17.80;99.90;;;;;;5077384;28;20477;-40
2022/04/13 08:20:01;;;;;;;16.60;10.90;;;17.80;99.90;;;;;;5068853;28;20436;-40
2022/04/13 08:22:28;;;;;;;13.63;9.77;;;17.90;99.90;;;;;;5051132;28;20416;-38
2022/04/13 08:24:54;;;;;;;16.37;10.50;;;17.90;99.90;;;;;;5052401;28;20272;-39
2022/04/13 08:27:20;;;;;;;14.50;11.77;;;17.90;99.90;;;;;;5051065;28;21022;-39
2022/04/13 08:29:48;;;;;;;13.53;9.77;;;18.00;99.90;;;;;;5051003;28;20693;-32
2022/04/13 08:32:21;;;;;;;19.53;11.87;;;18.00;99.90;;;;;;5072357;28;21131;-37
2022/04/13 08:34:48;;;;;;;14.07;10.10;;;18.10;99.90;;;;;;5072645;28;20420;-38
2022/04/13 08:37:14;;;;;;;17.93;12.40;;;18.20;99.90;;;;;;5052966;28;20424;-39
2022/04/13 08:39:40;;;;;;;14.50;10.67;;;18.30;99.90;;;;;;5052284;28;20424;-37
2022/04/13 08:42:13;;;;;;;14.90;11.20;;;18.40;99.90;;;;;;5050571;28;20210;-37
2022/04/13 08:44:50;;;;;;;15.10;11.80;;;18.40;99.90;;;;;;5049074;28;20427;-41
2022/04/13 08:47:25;;;;;;;16.63;12.40;;;18.50;99.90;;;;;;5054079;28;20934;-40
2022/04/13 08:49:52;;;;;;;23.50;12.20;;;18.50;99.90;;;;;;5068966;28;20494;-39
2022/04/13 08:52:31;;;;;;;13.63;10.80;;;18.60;99.90;;;;;;5050580;28;20862;-37
2022/04/13 08:55:09;;;;;;;15.60;10.63;;;18.60;99.90;;;;;;5062432;28;20432;-36
2022/04/13 08:57:41;;;;;;;13.93;11.23;;;18.70;99.90;;;;;;5050285;28;20968;-40
2022/04/13 09:00:13;;;;;;;16.33;10.77;;;18.80;99.90;;;;;;5049276;28;20436;-35
2022/04/13 09:02:47;;;;;;;19.23;10.37;;;18.80;99.90;;;;;;5057287;28;20432;-39
2022/04/13 09:05:25;;;;;;;14.30;10.30;;;18.90;99.90;;;;;;5061806;28;20420;-38
2022/04/13 09:08:20;;;;;;;15.37;9.50;;;19.00;99.90;;;;;;5048432;28;20424;-36
2022/04/13 09:10:48;;;;;;;16.60;9.37;;;19.10;99.90;;;;;;5055805;28;20428;-36
2022/04/13 09:13:15;;;;;;;8.83;8.03;;;19.30;99.90;;;;;;5049784;28;20503;-39
2022/04/13 09:15:42;;;;;;;13.77;8.37;;;19.40;99.90;;;;;;5055384;28;20433;-40
2022/04/13 09:18:09;;;;;;;13.23;8.77;;;19.60;99.90;;;;;;5067469;28;21070;-38
2022/04/13 09:20:39;;;;;;;15.20;8.97;;;19.70;99.90;;;;;;5057519;28;20504;-38
2022/04/13 09:23:06;;;;;;;16.27;10.87;;;19.80;99.90;;;;;;5049145;28;20428;-38
2022/04/13 09:25:33;;;;;;;12.93;8.70;;;19.90;99.10;;;;;;5050022;28;20429;-38
2022/04/13 09:28:00;;;;;;;11.10;7.73;;;20.00;99.90;;;;;;5049482;28;20432;-38
2022/04/13 09:30:26;;;;;;;15.50;8.70;;;20.00;99.90;;;;;;5032490;28;20856;-36
2022/04/13 09:32:52;;;;;;;11.87;7.50;;;20.30;99.90;;;;;;5061521;28;20503;-38
2022/04/13 09:35:19;;;;;;;13.90;7.53;;;20.50;99.30;;;;;;5067568;28;20503;-39
2022/04/13 09:37:45;;;;;;;8.90;7.30;;;20.60;98.30;;;;;;5049376;28;20197;-37
2022/04/13 09:40:26;;;;;;;13.03;6.57;;;20.80;98.00;;;;;;5059679;28;20422;-40
2022/04/13 09:42:51;;;;;;;7.43;6.17;;;20.90;98.40;;;;;;5049115;28;20431;-39
2022/04/13 09:45:17;;;;;;;9.57;6.47;;;21.10;98.10;;;;;;5049187;28;20432;-40
2022/04/13 09:47:46;;;;;;;12.23;7.20;;;21.30;96.70;;;;;;5071433;28;20201;-38
2022/04/13 09:50:25;;;;;;;7.90;5.40;;;21.40;97.60;;;;;;5063529;28;20186;-40
2022/04/13 09:52:57;;;;;;;7.83;5.27;;;21.50;97.10;;;;;;5048853;28;20428;-38
2022/04/13 09:55:24;;;;;;;10.33;5.10;;;21.80;98.20;;;;;;5055452;28;20463;-36
2022/04/13 09:57:50;;;;;;;6.57;4.93;;;21.90;97.30;;;;;;5048924;28;20427;-35
2022/04/13 10:00:16;;;;;;;11.00;5.40;;;22.00;95.40;;;;;;5047662;28;20424;-41
2022/04/13 10:02:44;;;;;;;15.47;5.97;;;22.10;95.20;;;;;;5065217;28;20423;-40
2022/04/13 10:05:21;;;;;;;15.07;5.20;;;22.00;94.70;;;;;;5066594;28;20420;-41
2022/04/13 10:08:04;;;;;;;6.80;3.97;;;22.20;95.80;;;;;;5047073;28;20821;-36
2022/04/13 10:10:30;;;;;;;10.83;4.53;;;22.30;95.20;;;;;;5048771;28;20431;-38
2022/04/13 10:12:56;;;;;;;9.43;4.47;;;22.10;94.40;;;;;;5047076;28;20424;-37
2022/04/13 10:15:22;;;;;;;5.63;4.50;;;21.90;94.10;;;;;;5044903;28;20460;-35
2022/04/13 10:17:49;;;;;;;8.60;5.70;;;21.70;94.80;;;;;;5063064;28;20229;-39
2022/04/13 10:20:14;;;;;;;10.90;5.53;;;21.50;95.40;;;;;;5059360;28;20425;-38
2022/04/13 10:22:59;;;;;;;7.33;4.10;;;21.30;95.30;;;;;;5046472;28;20826;-38
2022/04/13 10:25:26;;;;;;;7.47;3.70;;;21.20;95.60;;;;;;5050260;28;20201;-39
2022/04/13 10:27:57;;;;;;;7.60;4.20;;;21.10;95.80;;;;;;5046579;28;20565;-40
2022/04/13 10:30:37;;;;;;;11.50;4.87;;;21.10;95.10;;;;;;5046099;28;20428;-39
2022/04/13 10:33:02;;;;;;;5.13;3.73;;;21.10;95.50;;;;;;5055953;28;20495;-38
2022/04/13 10:35:29;;;;;;;6.13;4.13;;;21.30;95.60;;;;;;5068440;28;20425;-41
2022/04/13 10:37:55;;;;;;;5.47;3.27;;;21.30;94.80;;;;;;5046695;28;20571;-38
2022/04/13 10:40:32;;;;;;;8.23;4.60;;;21.40;95.20;;;;;;5053121;28;20463;-39
2022/04/13 10:43:01;;;;;;;6.27;3.50;;;21.40;94.90;;;;;;5046193;28;20416;-41
2022/04/13 10:45:28;;;;;;;5.53;3.43;;;21.40;95.90;;;;;;5047176;28;20428;-39
2022/04/13 10:47:58;;;;;;;4.00;3.50;;;21.60;95.20;;;;;;5069490;28;20777;-37
2022/04/13 10:50:47;;;;;;;6.70;3.13;;;21.70;95.40;;;;;;5067000;28;20423;-38
2022/04/13 10:53:23;;;;;;;6.83;4.10;;;21.70;94.70;;;;;;5049350;28;20412;-41
2022/04/13 10:56:01;;;;;;;6.30;3.77;;;21.90;94.30;;;;;;5049705;28;20793;-38
2022/04/13 10:58:36;;;;;;;7.40;3.83;;;21.90;94.50;;;;;;5046245;28;20463;-38
2022/04/13 11:01:04;;;;;;;7.97;3.97;;;22.00;94.30;;;;;;5045473;28;21302;-37
2022/04/13 11:03:36;;;;;;;7.00;3.50;;;21.80;93.70;;;;;;5055376;28;20570;-37
2022/04/13 11:06:07;;;;;;;11.37;4.07;;;21.90;94.80;;;;;;5061128;28;20427;-40
2022/04/13 11:08:46;;;;;;;9.43;4.27;;;22.00;95.00;;;;;;5046349;28;20420;-41
2022/04/13 11:11:21;;;;;;;9.57;3.73;;;22.00;94.30;;;;;;5057278;28;20419;-39
2022/04/13 11:13:49;;;;;;;7.97;4.27;;;22.00;94.20;;;;;;5044969;28;20496;-39
2022/04/13 11:16:20;;;;;;;4.67;3.43;;;22.00;93.70;;;;;;5051338;28;20847;-39
2022/04/13 11:19:19;;;;;;;9.23;4.67;;;22.00;94.40;;;;;;5058195;28;20475;-39
2022/04/13 11:21:54;;;;;;;7.30;3.90;;;22.30;95.40;;;;;;5029220;28;21008;-38
2022/04/13 11:24:45;;;;;;;8.30;5.30;;;22.50;95.80;;;;;;5049855;28;20442;-41
2022/04/13 11:27:11;;;;;;;13.13;4.10;;;22.60;93.60;;;;;;5043683;28;20950;-40
2022/04/13 11:29:44;;;;;;;7.60;4.50;;;22.60;94.30;;;;;;5045577;28;20468;-37
2022/04/13 11:32:16;;;;;;;12.87;4.80;;;22.80;94.50;;;;;;5051115;28;20436;-38
2022/04/13 11:34:51;;;;;;;8.70;3.93;;;22.90;94.20;;;;;;5075370;28;20451;-38
2022/04/13 11:37:26;;;;;;;9.80;4.67;;;23.10;94.40;;;;;;5050606;28;20426;-35
2022/04/13 11:40:10;;;;;;;6.90;3.87;;;23.10;93.80;;;;;;5034325;28;20426;-41
2022/04/13 11:42:36;;;;;;;6.87;3.30;;;23.20;93.10;;;;;;5049577;28;20950;-35
2022/04/13 11:45:16;;;;;;;6.07;3.80;;;23.30;93.20;;;;;;5049595;28;20420;-40
2022/04/13 11:47:46;;;;;;;6.50;4.77;;;23.30;92.00;;;;;;5058184;28;20518;-40
2022/04/13 11:50:14;;;;;;;6.40;4.70;;;23.20;91.90;;;;;;5073537;28;20424;-41
2022/04/13 11:52:58;;;;;;;10.83;4.20;;;22.80;92.10;;;;;;5048973;28;20923;-41
2022/04/13 11:55:37;;;;;;;8.47;3.43;;;22.60;92.60;;;;;;5049621;28;20446;-38
2022/04/13 11:58:08;;;;;;;8.73;4.13;;;22.40;93.30;;;;;;5049314;28;20420;-39
2022/04/13 12:00:44;;;;;;;7.47;4.00;;;22.30;93.30;;;;;;5048462;28;20460;-41
2022/04/13 12:03:15;;;;;;;7.50;5.43;;;22.10;93.40;;;;;;5049770;28;21018;-39
2022/04/13 12:05:52;;;;;;;5.97;4.47;;;22.00;93.50;;;;;;5071613;28;20454;-40
2022/04/13 12:08:23;;;;;;;6.30;3.70;;;22.10;94.30;;;;;;5048920;28;20496;-40
2022/04/13 12:10:55;;;;;;;7.87;5.20;;;22.10;94.50;;;;;;5058627;28;20428;-41
2022/04/13 12:13:21;;;;;;;6.30;5.20;;;22.10;94.70;;;;;;5049010;28;20810;-40
2022/04/13 12:15:53;;;;;;;7.67;5.17;;;22.00;94.30;;;;;;5050825;28;20450;-40
2022/04/13 12:18:20;;;;;;;7.70;3.77;;;21.90;94.20;;;;;;5069624;28;20677;-39
2022/04/13 12:20:47;;;;;;;9.27;3.87;;;21.80;95.10;;;;;;5066372;28;20986;-40
2022/04/13 12:23:27;;;;;;;6.63;4.30;;;21.80;95.30;;;;;;5058052;28;20709;-40
2022/04/13 12:25:56;;;;;;;7.80;4.17;;;21.80;95.40;;;;;;5050093;28;20420;-39
2022/04/13 12:28:23;;;;;;;9.63;4.50;;;21.70;95.30;;;;;;5049025;28;20615;-40
2022/04/13 12:30:59;;;;;;;7.97;4.50;;;21.70;95.10;;;;;;5048595;28;20519;-37
2022/04/13 12:33:27;;;;;;;8.17;6.13;;;21.60;95.70;;;;;;5069777;28;20434;-38
2022/04/13 12:36:01;;;;;;;10.33;5.67;;;21.80;96.10;;;;;;5068754;28;20574;-37
2022/04/13 12:38:34;;;;;;;12.73;6.20;;;21.90;94.90;;;;;;5049457;28;20446;-40
2022/04/13 12:41:20;;;;;;;10.00;6.50;;;22.00;95.80;;;;;;5048170;28;20467;-38
2022/04/13 12:43:56;;;;;;;9.60;6.47;;;22.00;96.10;;;;;;5048678;28;20562;-40
2022/04/13 12:46:27;;;;;;;10.00;7.27;;;21.90;96.20;;;;;;5048924;28;20518;-40
2022/04/13 12:48:58;;;;;;;11.97;6.27;;;22.00;96.20;;;;;;5058855;28;20427;-39